createdAt,value
2023-02-11T00:01:35.206Z,77.57
2023-02-11T00:04:05.810Z,76.02
2023-02-11T00:06:36.609Z,77.20
2023-02-11T00:09:05.688Z,77.21
2023-02-11T00:11:33.868Z,77.82
2023-02-11T00:14:09.352Z,77.25
2023-02-11T00:16:37.570Z,77.08
2023-02-11T00:19:06.590Z,76.86
2023-02-11T00:21:35.786Z,77.34
2023-02-11T00:24:03.760Z,77.78
2023-02-11T00:26:35.212Z,78.04
2023-02-11T00:29:05.929Z,78.22
2023-02-11T00:31:35.420Z,77.93
2023-02-11T00:34:03.732Z,76.50
2023-02-11T00:36:32.100Z,76.71
2023-02-11T00:39:01.628Z,77.67
2023-02-11T00:41:30.247Z,77.13
2023-02-11T00:43:58.601Z,77.89
2023-02-11T00:46:28.234Z,75.89
2023-02-11T00:48:57.894Z,77.52
2023-02-11T00:51:26.407Z,77.98
2023-02-11T00:53:55.305Z,76.21
2023-02-11T00:56:23.303Z,75.59
2023-02-11T00:58:53.411Z,75.39
2023-02-11T01:01:21.817Z,76.95
2023-02-11T01:03:53.719Z,77.11
2023-02-11T01:06:21.924Z,77.98
2023-02-11T01:08:49.863Z,77.18
2023-02-11T01:11:21.375Z,76.58
2023-02-11T01:13:51.339Z,76.94
2023-02-11T01:16:21.390Z,76.65
2023-02-11T01:18:50.708Z,77.20
2023-02-11T01:21:18.661Z,76.97
2023-02-11T01:23:46.632Z,76.72
2023-02-11T01:26:14.928Z,75.84
2023-02-11T01:28:42.922Z,77.23
2023-02-11T01:31:10.956Z,78.11
2023-02-11T01:33:39.054Z,77.77
2023-02-11T01:36:10.016Z,77.39
2023-02-11T01:38:40.010Z,77.78
2023-02-11T01:41:11.281Z,78.58
2023-02-11T01:43:43.821Z,76.98
2023-02-11T01:46:35.197Z,77.26
2023-02-11T01:49:11.054Z,77.62
2023-02-11T01:51:48.205Z,76.51
2023-02-11T01:54:40.453Z,76.71
2023-02-11T01:57:25.124Z,76.91
2023-02-11T02:00:07.152Z,77.90
2023-02-11T02:02:45.429Z,77.76
2023-02-11T02:05:25.566Z,77.76
2023-02-11T02:08:07.727Z,77.18
2023-02-11T02:10:39.385Z,77.79
2023-02-11T02:13:07.484Z,77.43
2023-02-11T02:15:42.377Z,76.93
2023-02-11T02:18:42.751Z,78.26
2023-02-11T02:22:06.913Z,78.16
2023-02-11T02:25:19.724Z,77.98
2023-02-11T02:27:57.556Z,78.86
2023-02-11T02:30:59.226Z,78.47
2023-02-11T02:33:46.670Z,77.95
2023-02-11T02:36:24.266Z,77.90
2023-02-11T02:38:59.771Z,77.92
2023-02-11T02:41:33.611Z,79.15
2023-02-11T02:44:02.186Z,79.03
2023-02-11T02:46:34.006Z,77.92
2023-02-11T02:49:04.447Z,77.94
2023-02-11T02:52:03.152Z,77.34
2023-02-11T02:54:54.335Z,77.69
2023-02-11T02:57:33.886Z,78.37
2023-02-11T03:00:18.900Z,78.58
2023-02-11T03:03:06.610Z,78.44
2023-02-11T03:05:53.684Z,78.90
2023-02-11T03:08:33.247Z,79.12
2023-02-11T03:11:04.270Z,78.75
2023-02-11T03:13:37.122Z,78.25
2023-02-11T03:16:13.374Z,77.86
2023-02-11T03:18:48.855Z,77.28
2023-02-11T03:21:21.301Z,78.23
2023-02-11T03:23:55.210Z,78.81
2023-02-11T03:26:31.713Z,78.88
2023-02-11T03:29:11.022Z,78.95
2023-02-11T03:31:54.071Z,79.41
2023-02-11T03:34:32.105Z,78.55
2023-02-11T03:37:09.054Z,79.77
2023-02-11T03:39:41.812Z,79.81
2023-02-11T03:42:14.500Z,78.75
2023-02-11T03:44:52.576Z,78.27
2023-02-11T03:47:27.402Z,79.45
2023-02-11T03:49:59.223Z,78.46
2023-02-11T03:52:29.998Z,78.78
2023-02-11T03:55:03.904Z,77.75
2023-02-11T03:57:34.291Z,77.29
2023-02-11T04:00:02.709Z,77.84
2023-02-11T04:02:34.781Z,78.03
2023-02-11T04:05:02.701Z,78.28
2023-02-11T04:07:32.126Z,77.40
2023-02-11T04:10:00.833Z,77.78
2023-02-11T04:12:28.836Z,77.92
2023-02-11T04:14:58.819Z,76.30
2023-02-11T04:17:26.928Z,76.62
2023-02-11T04:19:54.895Z,76.75
2023-02-11T04:22:22.780Z,76.81
2023-02-11T04:24:52.178Z,77.80
2023-02-11T04:27:20.116Z,77.27
2023-02-11T04:29:48.282Z,76.93
2023-02-11T04:32:16.936Z,77.02
2023-02-11T04:34:45.130Z,77.24
2023-02-11T04:37:13.197Z,77.10
2023-02-11T04:39:41.210Z,77.63
2023-02-11T04:42:10.596Z,77.66
2023-02-11T04:44:38.662Z,77.82
2023-02-11T04:47:06.826Z,77.11
2023-02-11T04:49:34.776Z,77.68
2023-02-11T04:52:02.694Z,76.29
2023-02-11T04:54:30.566Z,77.23
2023-02-11T04:56:58.578Z,75.89
2023-02-11T04:59:28.035Z,75.91
2023-02-11T05:01:56.204Z,76.81
2023-02-11T05:04:24.204Z,75.71
2023-02-11T05:06:52.422Z,76.61
2023-02-11T05:09:20.520Z,76.70
2023-02-11T05:11:48.656Z,76.57
2023-02-11T05:14:16.542Z,76.85
2023-02-11T05:16:45.988Z,76.53
2023-02-11T05:19:14.034Z,76.70
2023-02-11T05:21:53.194Z,77.48
2023-02-11T05:24:28.589Z,78.30
2023-02-11T05:26:56.495Z,78.31
2023-02-11T05:29:24.434Z,77.81
2023-02-11T05:31:53.875Z,78.61
2023-02-11T05:34:22.008Z,77.32
2023-02-11T05:36:49.955Z,77.91
2023-02-11T05:39:17.785Z,79.93
2023-02-11T05:41:45.744Z,77.84
2023-02-11T05:44:13.753Z,77.12
2023-02-11T05:46:41.886Z,78.15
2023-02-11T05:49:11.360Z,77.33
2023-02-11T05:51:39.573Z,78.90
2023-02-11T05:54:07.692Z,78.78
2023-02-11T05:56:35.744Z,79.47
2023-02-11T05:59:03.791Z,79.73
2023-02-11T06:01:31.833Z,79.08
2023-02-11T06:03:59.788Z,79.41
2023-02-11T06:06:29.145Z,79.62
2023-02-11T06:08:57.368Z,79.24
2023-02-11T06:11:25.264Z,78.41
2023-02-11T06:13:53.303Z,79.28
2023-02-11T06:16:21.334Z,79.35
2023-02-11T06:18:49.501Z,78.68
2023-02-11T06:21:19.381Z,78.28
2023-02-11T06:23:49.169Z,79.11
2023-02-11T06:26:20.956Z,79.34
2023-02-11T06:28:49.609Z,79.33
2023-02-11T06:31:18.481Z,78.98
2023-02-11T06:33:46.448Z,79.42
2023-02-11T06:36:17.849Z,79.69
2023-02-11T06:38:46.478Z,79.36
2023-02-11T06:41:20.321Z,79.28
2023-02-11T06:43:49.019Z,79.14
2023-02-11T06:46:17.587Z,78.99
2023-02-11T06:48:45.665Z,78.54
2023-02-11T06:51:15.471Z,78.04
2023-02-11T06:53:46.295Z,79.96
2023-02-11T06:56:18.656Z,79.18
2023-02-11T06:58:48.360Z,79.54
2023-02-11T07:01:18.154Z,80.33
2023-02-11T07:03:47.237Z,80.31
2023-02-11T07:06:19.401Z,79.56
2023-02-11T07:08:47.673Z,79.32
2023-02-11T07:11:21.171Z,80.16
2023-02-11T07:13:49.342Z,81.54
2023-02-11T07:16:20.331Z,80.74
2023-02-11T07:18:49.806Z,81.51
2023-02-11T07:21:21.927Z,81.76
2023-02-11T07:23:50.326Z,81.25
2023-02-11T07:26:23.127Z,81.47
2023-02-11T07:28:51.681Z,80.90
2023-02-11T07:31:24.904Z,81.39
2023-02-11T07:33:55.366Z,82.17
2023-02-11T07:36:24.673Z,80.79
2023-02-11T07:38:54.780Z,80.17
2023-02-11T07:41:26.217Z,81.57
2023-02-11T07:43:54.912Z,80.35
2023-02-11T07:46:25.393Z,80.28
2023-02-11T07:48:55.027Z,81.05
2023-02-11T07:51:26.427Z,81.64
2023-02-11T07:53:55.407Z,82.10
2023-02-11T07:56:25.425Z,82.12
2023-02-11T07:58:53.547Z,81.64
2023-02-11T08:01:28.354Z,81.80
2023-02-11T08:03:58.110Z,81.99
2023-02-11T08:06:29.192Z,82.72
2023-02-11T08:08:57.262Z,81.89
2023-02-11T08:11:29.609Z,82.52
2023-02-11T08:13:58.631Z,82.19
2023-02-11T08:16:29.813Z,81.52
2023-02-11T08:19:01.115Z,81.73
2023-02-11T08:21:31.609Z,82.13
2023-02-11T08:23:59.896Z,81.04
2023-02-11T08:26:34.690Z,81.73
2023-02-11T08:29:09.341Z,81.03
2023-02-11T08:31:43.190Z,80.28
2023-02-11T08:34:14.208Z,80.48
2023-02-11T08:36:45.935Z,80.13
2023-02-11T08:39:19.966Z,81.31
2023-02-11T08:41:52.936Z,79.98
2023-02-11T08:44:22.792Z,79.79
2023-02-11T08:46:51.945Z,80.09
2023-02-11T08:49:21.146Z,79.95
2023-02-11T08:51:49.537Z,81.53
2023-02-11T08:54:18.005Z,80.73
2023-02-11T08:56:46.395Z,80.30
2023-02-11T08:59:17.757Z,79.61
2023-02-11T09:01:47.337Z,80.07
2023-02-11T09:04:15.385Z,80.79
2023-02-11T09:06:43.592Z,80.78
2023-02-11T09:09:14.021Z,79.56
2023-02-11T09:11:44.666Z,80.73
2023-02-11T09:14:22.147Z,79.68
2023-02-11T09:16:52.549Z,79.69
2023-02-11T09:19:21.581Z,79.89
2023-02-11T09:21:49.689Z,79.10
2023-02-11T09:24:18.435Z,78.85
2023-02-11T09:26:46.451Z,78.24
2023-02-11T09:29:17.057Z,78.60
2023-02-11T09:31:46.603Z,78.15
2023-02-11T09:34:15.865Z,77.34
2023-02-11T09:36:45.852Z,77.62
2023-02-11T09:39:18.256Z,77.16
2023-02-11T09:42:33.416Z,77.48
2023-02-11T09:45:03.663Z,77.96
2023-02-11T09:47:35.413Z,77.56
2023-02-11T09:50:07.924Z,77.72
2023-02-11T09:52:46.144Z,76.31
2023-02-11T09:55:24.209Z,75.15
2023-02-11T09:57:52.665Z,76.36
2023-02-11T10:00:26.228Z,76.23
2023-02-11T10:03:22.067Z,76.53
2023-02-11T10:06:14.132Z,76.63
2023-02-11T10:08:57.752Z,76.03
2023-02-11T10:11:35.426Z,75.88
2023-02-11T10:14:26.738Z,76.17
2023-02-11T10:17:07.333Z,75.20
2023-02-11T10:19:57.513Z,74.84
2023-02-11T10:22:33.867Z,74.01
2023-02-11T10:25:18.413Z,73.25
2023-02-11T10:27:47.106Z,72.27
2023-02-11T10:30:27.736Z,73.25
2023-02-11T10:33:04.339Z,74.46
2023-02-11T10:35:34.243Z,73.34
2023-02-11T10:38:02.381Z,72.98
2023-02-11T10:40:32.861Z,73.36
2023-02-11T10:43:06.997Z,74.98
2023-02-11T10:45:39.813Z,73.98
2023-02-11T10:48:43.165Z,74.87
2023-02-11T10:51:22.119Z,73.08
2023-02-11T10:53:59.941Z,73.80
2023-02-11T10:56:31.680Z,71.49
2023-02-11T10:59:05.880Z,72.76
2023-02-11T11:01:48.002Z,73.23
2023-02-11T11:04:45.393Z,72.86
2023-02-11T11:07:21.301Z,74.88
2023-02-11T11:09:54.298Z,74.25
2023-02-11T11:12:49.383Z,73.05
2023-02-11T11:15:21.844Z,71.04
2023-02-11T11:17:51.218Z,71.67
2023-02-11T11:20:28.536Z,70.92
2023-02-11T11:23:16.738Z,69.89
2023-02-11T11:25:47.504Z,70.23
2023-02-11T11:28:25.283Z,71.00
2023-02-11T11:30:56.622Z,71.75
2023-02-11T11:33:30.170Z,69.23
2023-02-11T11:36:06.035Z,69.69
2023-02-11T11:38:41.193Z,69.39
2023-02-11T11:41:23.478Z,69.69
2023-02-11T11:44:01.916Z,69.05
2023-02-11T11:46:35.464Z,68.49
2023-02-11T11:49:24.248Z,68.33
2023-02-11T11:52:09.551Z,68.94
2023-02-11T11:54:40.695Z,68.08
2023-02-11T11:57:19.027Z,67.94
2023-02-11T11:59:47.579Z,68.77
2023-02-11T12:02:47.092Z,67.46
2023-02-11T12:05:23.670Z,67.06
2023-02-11T12:08:04.972Z,68.84
2023-02-11T12:10:58.929Z,67.43
2023-02-11T12:13:50.204Z,67.09
2023-02-11T12:16:34.542Z,65.95
2023-02-11T12:19:44.571Z,65.51
2023-02-11T12:22:20.844Z,64.47
2023-02-11T12:25:13.773Z,65.17
2023-02-11T12:27:57.326Z,65.31
2023-02-11T12:30:50.792Z,65.21
2023-02-11T12:33:45.570Z,65.32
2023-02-11T12:36:35.421Z,65.59
2023-02-11T12:39:24.612Z,65.68
2023-02-11T12:42:31.660Z,65.56
2023-02-11T12:45:29.426Z,64.83
2023-02-11T12:48:22.732Z,64.83
2023-02-11T12:51:02.513Z,64.61
2023-02-11T12:53:51.979Z,64.72
2023-02-11T12:56:27.323Z,65.86
2023-02-11T12:59:01.754Z,65.62
2023-02-11T13:01:38.006Z,64.52
2023-02-11T13:04:14.702Z,64.49
2023-02-11T13:06:47.735Z,63.49
2023-02-11T13:09:25.244Z,63.49
2023-02-11T13:12:20.423Z,64.38
2023-02-11T13:14:53.318Z,63.45
2023-02-11T13:17:34.026Z,64.79
2023-02-11T13:20:15.340Z,63.06
2023-02-11T13:22:51.014Z,63.78
2023-02-11T13:25:32.771Z,65.17
2023-02-11T13:28:19.302Z,63.71
2023-02-11T13:30:52.197Z,63.11
2023-02-11T13:33:37.536Z,64.08
2023-02-11T13:36:19.138Z,64.43
2023-02-11T13:39:07.050Z,63.83
2023-02-11T13:41:41.850Z,64.91
2023-02-11T13:44:27.590Z,64.86
2023-02-11T13:47:01.363Z,65.14
2023-02-11T13:49:40.497Z,64.45
2023-02-11T13:52:25.938Z,63.87
2023-02-11T13:54:58.070Z,64.03
2023-02-11T13:57:35.548Z,64.75
2023-02-11T14:00:47.100Z,64.68
2023-02-11T14:03:56.245Z,63.95
2023-02-11T14:06:45.807Z,63.83
2023-02-11T14:09:40.428Z,64.45
2023-02-11T14:12:38.596Z,64.62
2023-02-11T14:15:28.344Z,64.46
2023-02-11T14:17:56.369Z,64.76
2023-02-11T14:20:44.695Z,63.37
2023-02-11T14:23:28.460Z,63.16
2023-02-11T14:26:16.419Z,64.75
2023-02-11T14:28:46.880Z,63.36
2023-02-11T14:31:19.857Z,63.76
2023-02-11T14:34:21.065Z,64.00
2023-02-11T14:37:19.168Z,64.45
2023-02-11T14:40:10.274Z,65.50
2023-02-11T14:42:41.324Z,64.90
2023-02-11T14:45:17.328Z,65.45
2023-02-11T14:47:53.707Z,64.60
2023-02-11T14:50:28.021Z,64.02
2023-02-11T14:53:02.243Z,64.38
2023-02-11T14:55:37.134Z,65.86
2023-02-11T14:58:15.930Z,65.10
2023-02-11T15:00:57.814Z,65.15
2023-02-11T15:03:33.613Z,64.97
2023-02-11T15:06:06.445Z,64.93
2023-02-11T15:08:40.520Z,65.58
2023-02-11T15:11:14.992Z,65.42
2023-02-11T15:13:48.138Z,65.75
2023-02-11T15:16:20.746Z,65.57
2023-02-11T15:18:55.275Z,65.00
2023-02-11T15:21:30.040Z,64.88
2023-02-11T15:24:01.665Z,64.95
2023-02-11T15:26:34.711Z,66.02
2023-02-11T15:29:02.706Z,66.30
2023-02-11T15:31:34.628Z,66.08
2023-02-11T15:34:09.088Z,65.59
2023-02-11T15:36:38.761Z,66.50
2023-02-11T15:39:32.306Z,67.36
2023-02-11T15:42:25.807Z,66.60
2023-02-11T15:45:12.932Z,66.81
2023-02-11T15:47:52.009Z,68.09
2023-02-11T15:50:25.255Z,66.99
2023-02-11T15:52:56.205Z,67.76
2023-02-11T15:55:27.473Z,67.71
2023-02-11T15:57:59.625Z,67.33
2023-02-11T16:00:37.840Z,67.08
2023-02-11T16:03:06.168Z,67.64
2023-02-11T16:05:37.379Z,68.11
2023-02-11T16:08:24.440Z,68.14
2023-02-11T16:10:58.857Z,67.16
2023-02-11T16:13:30.627Z,68.16
2023-02-11T16:16:04.746Z,68.47
2023-02-11T16:18:40.191Z,67.19
2023-02-11T16:21:17.802Z,67.78
2023-02-11T16:23:54.596Z,67.83
2023-02-11T16:26:30.299Z,67.35
2023-02-11T16:29:15.657Z,67.75
2023-02-11T16:31:46.853Z,67.36
2023-02-11T16:34:17.587Z,67.21
2023-02-11T16:36:46.787Z,68.03
2023-02-11T16:39:15.065Z,68.17
2023-02-11T16:41:43.081Z,68.55
2023-02-11T16:44:12.501Z,68.47
2023-02-11T16:46:43.964Z,68.78
2023-02-11T16:49:18.613Z,67.40
2023-02-11T16:51:50.728Z,67.30
2023-02-11T16:54:20.399Z,67.95
2023-02-11T16:56:48.341Z,68.60
2023-02-11T16:59:17.744Z,67.62
2023-02-11T17:01:47.621Z,67.16
2023-02-11T17:04:21.267Z,67.74
2023-02-11T17:06:49.368Z,67.08
2023-02-11T17:09:21.141Z,67.24
2023-02-11T17:11:49.940Z,67.98
2023-02-11T17:14:20.627Z,67.36
2023-02-11T17:16:49.686Z,66.77
2023-02-11T17:19:21.085Z,68.15
2023-02-11T17:22:01.517Z,68.78
2023-02-11T17:24:29.508Z,68.94
2023-02-11T17:26:57.436Z,69.00
2023-02-11T17:29:31.401Z,67.53
2023-02-11T17:31:59.409Z,67.82
2023-02-11T17:34:29.250Z,67.78
2023-02-11T17:36:58.003Z,67.17
2023-02-11T17:39:25.957Z,67.19
2023-02-11T17:41:53.914Z,67.24
2023-02-11T17:44:22.034Z,67.28
2023-02-11T17:46:53.951Z,67.36
2023-02-11T17:49:21.960Z,67.52
2023-02-11T17:51:49.937Z,67.65
2023-02-11T17:54:20.540Z,68.42
2023-02-11T17:56:55.733Z,67.74
2023-02-11T17:59:25.911Z,67.64
2023-02-11T18:01:55.274Z,67.35
2023-02-11T18:04:23.847Z,67.44
2023-02-11T18:06:53.516Z,67.31
2023-02-11T18:09:21.731Z,67.60
2023-02-11T18:11:52.541Z,66.30
2023-02-11T18:14:21.519Z,66.12
2023-02-11T18:16:53.871Z,68.50
2023-02-11T18:19:23.277Z,68.10
2023-02-11T18:21:52.408Z,68.97
2023-02-11T18:24:20.592Z,68.34
2023-02-11T18:26:48.837Z,68.35
2023-02-11T18:29:16.842Z,68.55
2023-02-11T18:31:45.002Z,68.61
2023-02-11T18:34:13.963Z,69.44
2023-02-11T18:36:43.650Z,68.80
2023-02-11T18:39:11.620Z,69.28
2023-02-11T18:41:42.303Z,69.82
2023-02-11T18:44:10.629Z,70.36
2023-02-11T18:46:38.754Z,70.00
2023-02-11T18:49:06.913Z,69.54
2023-02-11T18:51:35.077Z,71.76
2023-02-11T18:54:04.817Z,70.19
2023-02-11T18:56:32.976Z,71.13
2023-02-11T18:59:01.745Z,70.60
2023-02-11T19:01:33.689Z,70.98
2023-02-11T19:04:05.024Z,71.41
2023-02-11T19:06:55.802Z,69.71
2023-02-11T19:09:25.176Z,70.64
2023-02-11T19:11:55.393Z,70.22
2023-02-11T19:14:25.259Z,70.87
2023-02-11T19:16:55.300Z,70.41
2023-02-11T19:19:26.863Z,71.54
2023-02-11T19:21:56.505Z,72.27
2023-02-11T19:24:26.970Z,70.64
2023-02-11T19:26:59.039Z,70.36
2023-02-11T19:29:28.423Z,69.83
2023-02-11T19:31:56.869Z,72.91
2023-02-11T19:34:24.919Z,71.69
2023-02-11T19:36:54.293Z,70.78
2023-02-11T19:39:24.098Z,71.31
2023-02-11T19:41:53.539Z,69.48
2023-02-11T19:44:22.843Z,72.67
2023-02-11T19:46:53.220Z,72.92
2023-02-11T19:49:25.812Z,70.82
2023-02-11T19:51:55.717Z,69.93
2023-02-11T19:54:24.119Z,72.26
2023-02-11T19:56:54.210Z,72.16
2023-02-11T19:59:22.604Z,72.96
2023-02-11T20:01:50.680Z,69.99
2023-02-11T20:04:19.783Z,69.25
2023-02-11T20:06:49.413Z,69.11
2023-02-11T20:09:34.075Z,69.80
2023-02-11T20:12:03.432Z,70.10
2023-02-11T20:14:31.365Z,69.50
2023-02-11T20:16:59.461Z,71.42
2023-02-11T20:19:27.986Z,70.25
2023-02-11T20:21:56.269Z,69.40
2023-02-11T20:24:29.359Z,69.26
2023-02-11T20:26:57.283Z,69.68
2023-02-11T20:29:31.065Z,70.55
2023-02-11T20:31:59.171Z,69.33
2023-02-11T20:34:27.233Z,70.47
2023-02-11T20:36:56.036Z,69.67
2023-02-11T20:39:26.814Z,70.23
2023-02-11T20:41:56.565Z,70.48
2023-02-11T20:44:24.871Z,72.64
2023-02-11T20:46:54.920Z,70.67
2023-02-11T20:49:26.899Z,71.71
2023-02-11T20:51:55.789Z,70.31
2023-02-11T20:54:25.673Z,70.93
2023-02-11T20:56:55.387Z,70.10
2023-02-11T20:59:23.954Z,70.07
2023-02-11T21:01:57.472Z,69.47
2023-02-11T21:04:27.835Z,71.44
2023-02-11T21:06:58.354Z,70.33
2023-02-11T21:09:29.871Z,70.51
2023-02-11T21:11:58.096Z,70.30
2023-02-11T21:14:27.478Z,70.20
2023-02-11T21:16:57.566Z,70.84
2023-02-11T21:19:26.040Z,73.25
2023-02-11T21:21:55.175Z,74.12
2023-02-11T21:24:23.760Z,73.00
2023-02-11T21:26:51.788Z,75.01
2023-02-11T21:29:19.753Z,74.94
2023-02-11T21:31:47.775Z,75.54
2023-02-11T21:34:17.165Z,75.71
2023-02-11T21:36:45.825Z,74.13
2023-02-11T21:39:14.821Z,74.10
2023-02-11T21:41:42.720Z,73.11
2023-02-11T21:44:10.743Z,73.37
2023-02-11T21:46:38.870Z,72.88
2023-02-11T21:49:09.414Z,71.24
2023-02-11T21:51:38.797Z,73.31
2023-02-11T21:54:06.884Z,71.97
2023-02-11T21:56:35.472Z,70.77
2023-02-11T21:59:03.763Z,70.57
2023-02-11T22:01:36.907Z,70.10
2023-02-11T22:04:05.519Z,70.97
2023-02-11T22:06:42.403Z,73.04
2023-02-11T22:09:11.687Z,73.20
2023-02-11T22:11:39.912Z,73.35
2023-02-11T22:14:08.543Z,72.98
2023-02-11T22:16:37.786Z,71.91
2023-02-11T22:19:07.355Z,70.66
2023-02-11T22:21:36.628Z,70.31
2023-02-11T22:24:06.985Z,72.96
2023-02-11T22:26:34.932Z,73.76
2023-02-11T22:29:02.888Z,74.27
2023-02-11T22:31:33.961Z,73.15
2023-02-11T22:34:04.038Z,70.69
2023-02-11T22:36:38.401Z,74.12
2023-02-11T22:39:11.868Z,74.07
2023-02-11T22:41:41.585Z,75.09
2023-02-11T22:44:10.313Z,74.73
2023-02-11T22:46:41.673Z,73.99
2023-02-11T22:49:09.664Z,72.73
2023-02-11T22:51:37.607Z,74.80
2023-02-11T22:54:11.264Z,74.22
2023-02-11T22:56:40.170Z,73.56
2023-02-11T22:59:12.090Z,73.43
2023-02-11T23:01:43.636Z,75.04
2023-02-11T23:04:15.631Z,73.28
2023-02-11T23:06:44.049Z,73.90
2023-02-11T23:09:13.491Z,74.88
2023-02-11T23:11:41.965Z,75.68
2023-02-11T23:14:12.113Z,76.16
2023-02-11T23:16:40.253Z,76.14
2023-02-11T23:19:10.277Z,75.94
2023-02-11T23:21:43.148Z,76.62
2023-02-11T23:24:15.458Z,76.18
2023-02-11T23:26:47.251Z,75.43
2023-02-11T23:29:15.203Z,75.91
2023-02-11T23:31:46.117Z,76.33
2023-02-11T23:34:17.151Z,75.73
2023-02-11T23:36:45.433Z,75.73
2023-02-11T23:39:17.128Z,76.54
2023-02-11T23:41:45.804Z,75.88
2023-02-11T23:44:14.078Z,77.13
2023-02-11T23:46:42.075Z,77.78
2023-02-11T23:49:10.364Z,76.72
2023-02-11T23:51:40.210Z,76.88
2023-02-11T23:54:08.235Z,76.42
2023-02-11T23:56:37.919Z,77.05
2023-02-11T23:59:06.541Z,76.48
